createdAt,value
2018-05-03T00:00:32.119Z,0.00
2018-05-03T00:01:31.898Z,0.00
2018-05-03T00:02:32.108Z,0.00
2018-05-03T00:03:31.889Z,0.00
2018-05-03T00:04:31.886Z,0.00
2018-05-03T00:05:31.883Z,0.00
2018-05-03T00:06:31.878Z,0.00
2018-05-03T00:07:31.875Z,0.00
2018-05-03T00:08:31.884Z,0.00
2018-05-03T00:09:31.871Z,0.00
2018-05-03T00:10:31.864Z,0.00
2018-05-03T00:11:31.863Z,0.00
2018-05-03T00:12:31.857Z,0.00
2018-05-03T00:13:31.855Z,0.00
2018-05-03T00:14:31.853Z,0.00
2018-05-03T00:15:31.845Z,0.00
2018-05-03T00:16:31.850Z,0.00
2018-05-03T00:17:31.840Z,0.00
2018-05-03T00:18:32.042Z,0.00
2018-05-03T00:19:31.845Z,0.00
2018-05-03T00:20:32.038Z,0.00
2018-05-03T00:21:31.826Z,0.00
2018-05-03T00:22:31.821Z,0.00
2018-05-03T00:23:32.025Z,0.00
2018-05-03T00:24:32.021Z,0.00
2018-05-03T00:25:31.814Z,0.00
2018-05-03T00:26:32.023Z,0.00
2018-05-03T00:27:32.023Z,0.00
2018-05-03T00:28:31.813Z,0.00
2018-05-03T00:29:32.001Z,0.00
2018-05-03T00:30:31.797Z,0.00
2018-05-03T00:31:31.808Z,0.00
2018-05-03T00:32:31.791Z,0.00
2018-05-03T00:33:31.787Z,0.00
2018-05-03T00:34:31.784Z,0.00
2018-05-03T00:35:31.998Z,0.00
2018-05-03T00:36:31.777Z,0.00
2018-05-03T00:37:31.976Z,0.00
2018-05-03T00:38:31.971Z,0.00
2018-05-03T00:39:31.778Z,0.00
2018-05-03T00:40:31.760Z,0.00
2018-05-03T00:41:31.758Z,0.00
2018-05-03T00:42:31.770Z,0.00
2018-05-03T00:43:31.750Z,0.00
2018-05-03T00:44:31.950Z,0.00
2018-05-03T00:45:31.745Z,0.00
2018-05-03T00:46:31.741Z,0.00
2018-05-03T00:47:31.741Z,0.00
2018-05-03T00:48:31.735Z,0.00
2018-05-03T00:49:31.744Z,0.00
2018-05-03T00:50:31.739Z,0.00
2018-05-03T00:51:31.942Z,0.00
2018-05-03T00:52:31.722Z,0.00
2018-05-03T00:53:31.979Z,0.00
2018-05-03T00:54:31.725Z,0.00
2018-05-03T00:55:31.916Z,0.00
2018-05-03T00:56:31.709Z,0.00
2018-05-03T00:57:31.720Z,0.00
2018-05-03T00:58:31.909Z,0.00
2018-05-03T00:59:31.714Z,0.00
2018-05-03T01:00:31.696Z,0.00
2018-05-03T01:01:31.897Z,0.00
2018-05-03T01:02:31.689Z,0.00
2018-05-03T01:03:31.688Z,0.00
2018-05-03T01:04:31.683Z,0.00
2018-05-03T01:05:31.693Z,0.00
2018-05-03T01:06:31.680Z,0.00
2018-05-03T01:07:31.672Z,0.00
2018-05-03T01:08:31.697Z,0.00
2018-05-03T01:09:31.685Z,0.00
2018-05-03T01:10:31.663Z,0.00
2018-05-03T01:11:31.673Z,0.00
2018-05-03T01:12:31.861Z,0.00
2018-05-03T01:13:31.856Z,0.00
2018-05-03T01:14:31.649Z,0.00
2018-05-03T01:15:31.650Z,0.00
2018-05-03T01:16:31.646Z,0.00
2018-05-03T01:17:31.643Z,0.00
2018-05-03T01:18:31.843Z,0.00
2018-05-03T01:19:31.636Z,0.00
2018-05-03T01:20:31.634Z,0.00
2018-05-03T01:21:31.640Z,0.00
2018-05-03T01:22:31.829Z,0.00
2018-05-03T01:23:31.832Z,0.00
2018-05-03T01:24:31.619Z,0.00
2018-05-03T01:25:31.831Z,0.00
2018-05-03T01:26:31.829Z,0.00
2018-05-03T01:27:31.630Z,0.00
2018-05-03T01:28:31.632Z,0.00
2018-05-03T01:29:31.602Z,0.00
2018-05-03T01:30:31.811Z,0.00
2018-05-03T01:31:31.610Z,0.00
2018-05-03T01:32:31.797Z,0.00
2018-05-03T01:33:31.603Z,0.00
2018-05-03T01:34:31.589Z,0.00
2018-05-03T01:35:31.593Z,0.00
2018-05-03T01:36:31.588Z,0.00
2018-05-03T01:37:31.782Z,0.00
2018-05-03T01:38:31.574Z,0.00
2018-05-03T01:39:31.582Z,0.00
2018-05-03T01:40:31.570Z,0.00
2018-05-03T01:41:31.580Z,0.00
2018-05-03T01:42:31.779Z,0.00
2018-05-03T01:43:31.571Z,0.00
2018-05-03T01:44:31.569Z,0.00
2018-05-03T01:45:31.786Z,0.00
2018-05-03T01:46:31.751Z,0.00
2018-05-03T01:47:31.558Z,0.00
2018-05-03T01:48:31.559Z,0.00
2018-05-03T01:49:31.745Z,0.00
2018-05-03T01:50:31.563Z,0.00
2018-05-03T01:51:31.563Z,0.00
2018-05-03T01:52:31.528Z,0.00
2018-05-03T01:53:31.533Z,0.00
2018-05-03T01:54:31.545Z,0.00
2018-05-03T01:55:31.530Z,0.00
2018-05-03T01:56:31.533Z,0.00
2018-05-03T01:57:31.513Z,0.00
2018-05-03T01:58:31.515Z,0.00
2018-05-03T01:59:31.512Z,0.00
2018-05-03T02:00:31.510Z,0.00
2018-05-03T02:01:31.517Z,0.00
2018-05-03T02:02:31.707Z,0.00
2018-05-03T02:03:31.510Z,0.00
2018-05-03T02:04:31.504Z,0.00
2018-05-03T02:05:31.487Z,0.00
2018-05-03T02:06:31.497Z,0.00
2018-05-03T02:07:31.483Z,0.00
2018-05-03T02:08:31.480Z,0.00
2018-05-03T02:09:31.688Z,0.00
2018-05-03T02:10:31.488Z,0.00
2018-05-03T02:11:31.488Z,0.00
2018-05-03T02:12:31.496Z,0.00
2018-05-03T02:13:31.466Z,0.00
2018-05-03T02:14:31.469Z,0.00
2018-05-03T02:15:31.459Z,0.00
2018-05-03T02:16:31.508Z,0.00
2018-05-03T02:17:31.652Z,0.00
2018-05-03T02:18:31.444Z,0.00
2018-05-03T02:19:31.453Z,0.00
2018-05-03T02:20:31.643Z,0.00
2018-05-03T02:21:31.449Z,0.00
2018-05-03T02:22:31.437Z,0.00
2018-05-03T02:23:31.428Z,0.00
2018-05-03T02:24:31.427Z,0.00
2018-05-03T02:25:31.425Z,0.00
2018-05-03T02:26:31.421Z,0.00
2018-05-03T02:27:31.417Z,0.00
2018-05-03T02:28:31.629Z,0.00
2018-05-03T02:29:31.409Z,0.00
2018-05-03T02:30:31.410Z,0.00
2018-05-03T02:31:31.404Z,0.00
2018-05-03T02:32:31.407Z,0.00
2018-05-03T02:33:31.407Z,0.00
2018-05-03T02:34:31.393Z,0.00
2018-05-03T02:35:31.598Z,0.00
2018-05-03T02:36:31.590Z,0.00
2018-05-03T02:37:31.591Z,0.00
2018-05-03T02:38:31.383Z,0.00
2018-05-03T02:39:31.583Z,0.00
2018-05-03T02:40:31.601Z,0.00
2018-05-03T02:41:31.371Z,0.00
2018-05-03T02:42:31.376Z,0.00
2018-05-03T02:43:31.623Z,0.00
2018-05-03T02:44:31.371Z,0.00
2018-05-03T02:45:31.361Z,0.00
2018-05-03T02:46:31.588Z,0.00
2018-05-03T02:47:31.555Z,0.00
2018-05-03T02:48:31.605Z,0.00
2018-05-03T02:49:31.352Z,0.00
2018-05-03T02:50:31.550Z,0.00
2018-05-03T02:51:31.337Z,0.00
2018-05-03T02:52:31.332Z,0.00
2018-05-03T02:53:31.347Z,0.00
2018-05-03T02:54:31.331Z,0.00
2018-05-03T02:55:31.327Z,0.00
2018-05-03T02:56:31.335Z,0.00
2018-05-03T02:57:31.317Z,0.00
2018-05-03T02:58:31.519Z,0.00
2018-05-03T02:59:31.316Z,0.00
2018-05-03T03:00:31.315Z,0.00
2018-05-03T03:01:31.303Z,0.00
2018-05-03T03:02:31.312Z,0.00
2018-05-03T03:03:31.314Z,0.00
2018-05-03T03:04:31.305Z,0.00
2018-05-03T03:05:31.306Z,0.00
2018-05-03T03:06:31.303Z,0.00
2018-05-03T03:07:31.283Z,0.00
2018-05-03T03:08:31.284Z,0.00
2018-05-03T03:09:31.378Z,0.00
2018-05-03T03:10:31.478Z,0.00
2018-05-03T03:11:31.271Z,0.00
2018-05-03T03:12:31.284Z,0.00
2018-05-03T03:13:31.264Z,0.00
2018-05-03T03:14:31.262Z,0.00
2018-05-03T03:15:31.264Z,0.00
2018-05-03T03:16:31.253Z,0.00
2018-05-03T03:17:31.258Z,0.00
2018-05-03T03:18:31.257Z,0.00
2018-05-03T03:19:31.243Z,0.00
2018-05-03T03:20:31.457Z,0.00
2018-05-03T03:21:31.236Z,0.00
2018-05-03T03:22:31.237Z,0.00
2018-05-03T03:23:31.229Z,0.00
2018-05-03T03:24:31.239Z,0.00
2018-05-03T03:25:31.228Z,0.00
2018-05-03T03:26:31.239Z,0.00
2018-05-03T03:27:31.217Z,0.00
2018-05-03T03:28:31.419Z,0.00
2018-05-03T03:29:31.253Z,0.00
2018-05-03T03:30:31.212Z,0.00
2018-05-03T03:31:31.209Z,0.00
2018-05-03T03:32:31.204Z,0.00
2018-05-03T03:33:31.200Z,0.00
2018-05-03T03:34:31.417Z,0.00
2018-05-03T03:35:31.409Z,0.00
2018-05-03T03:36:31.188Z,0.00
2018-05-03T03:37:31.186Z,0.00
2018-05-03T03:38:31.181Z,0.00
2018-05-03T03:39:31.190Z,0.00
2018-05-03T03:40:31.175Z,0.00
2018-05-03T03:41:31.185Z,0.00
2018-05-03T03:42:31.191Z,0.00
2018-05-03T03:43:31.167Z,0.00
2018-05-03T03:44:31.375Z,0.00
2018-05-03T03:45:31.159Z,0.00
2018-05-03T03:46:31.165Z,0.00
2018-05-03T03:47:31.164Z,0.00
2018-05-03T03:48:31.149Z,0.00
2018-05-03T03:49:31.166Z,0.00
2018-05-03T03:50:31.156Z,0.00
2018-05-03T03:51:31.158Z,0.00
2018-05-03T03:52:31.169Z,0.00
2018-05-03T03:53:31.149Z,0.00
2018-05-03T03:54:31.333Z,0.00
2018-05-03T03:55:31.124Z,0.00
2018-05-03T03:56:31.123Z,0.00
2018-05-03T03:57:31.120Z,0.00
2018-05-03T03:58:31.118Z,0.00
2018-05-03T03:59:31.339Z,0.00
2018-05-03T04:00:31.124Z,0.00
2018-05-03T04:01:31.121Z,0.00
2018-05-03T04:02:31.104Z,0.00
2018-05-03T04:03:31.328Z,0.00
2018-05-03T04:04:31.316Z,0.00
2018-05-03T04:05:31.098Z,0.00
2018-05-03T04:06:31.090Z,0.00
2018-05-03T04:07:31.099Z,0.00
2018-05-03T04:08:31.097Z,0.00
2018-05-03T04:09:31.090Z,0.00
2018-05-03T04:10:31.106Z,0.00
2018-05-03T04:11:31.094Z,0.00
2018-05-03T04:12:31.088Z,0.00
2018-05-03T04:13:31.080Z,0.00
2018-05-03T04:14:31.083Z,0.00
2018-05-03T04:15:31.283Z,0.00
2018-05-03T04:16:31.056Z,0.00
2018-05-03T04:17:31.053Z,0.00
2018-05-03T04:18:31.263Z,0.00
2018-05-03T04:19:31.045Z,0.00
2018-05-03T04:20:31.059Z,0.00
2018-05-03T04:21:31.039Z,0.00
2018-05-03T04:22:31.151Z,0.00
2018-05-03T04:23:31.045Z,0.00
2018-05-03T04:24:31.101Z,0.00
2018-05-03T04:25:31.034Z,0.00
2018-05-03T04:26:31.022Z,0.00
2018-05-03T04:27:31.245Z,0.00
2018-05-03T04:28:31.014Z,0.00
2018-05-03T04:29:31.014Z,0.00
2018-05-03T04:30:31.213Z,0.00
2018-05-03T04:31:31.028Z,0.00
2018-05-03T04:32:31.009Z,0.00
2018-05-03T04:33:31.204Z,0.00
2018-05-03T04:34:31.085Z,0.00
2018-05-03T04:35:30.998Z,0.00
2018-05-03T04:36:31.199Z,0.00
2018-05-03T04:37:31.184Z,0.00
2018-05-03T04:38:31.208Z,0.00
2018-05-03T04:39:30.971Z,0.00
2018-05-03T04:40:31.191Z,0.00
2018-05-03T04:41:30.979Z,0.00
2018-05-03T04:42:30.975Z,0.00
2018-05-03T04:43:30.958Z,0.00
2018-05-03T04:44:31.182Z,0.00
2018-05-03T04:45:30.954Z,0.00
2018-05-03T04:46:30.973Z,0.00
2018-05-03T04:47:31.151Z,0.00
2018-05-03T04:48:30.951Z,0.00
2018-05-03T04:49:30.935Z,0.00
2018-05-03T04:50:30.934Z,0.00
2018-05-03T04:51:30.927Z,0.00
2018-05-03T04:52:30.925Z,0.00
2018-05-03T04:53:30.923Z,0.00
2018-05-03T04:54:30.925Z,0.00
2018-05-03T04:55:30.915Z,0.00
2018-05-03T04:56:30.906Z,0.00
2018-05-03T04:57:30.914Z,0.00
2018-05-03T04:58:30.901Z,0.00
2018-05-03T04:59:30.911Z,0.00
2018-05-03T05:00:30.890Z,5.63
2018-05-03T05:01:30.889Z,5.63
2018-05-03T05:02:31.088Z,5.63
2018-05-03T05:03:30.881Z,5.63
2018-05-03T05:04:30.887Z,5.63
2018-05-03T05:05:31.076Z,5.63
2018-05-03T05:06:30.899Z,5.63
2018-05-03T05:08:30.872Z,5.63
2018-05-03T05:09:30.858Z,5.63
2018-05-03T05:10:31.063Z,5.63
2018-05-03T05:11:30.851Z,5.63
2018-05-03T05:12:30.855Z,5.63
2018-05-03T05:13:30.843Z,5.63
2018-05-03T05:14:30.840Z,5.63
2018-05-03T05:15:30.837Z,5.63
2018-05-03T05:16:30.830Z,5.63
2018-05-03T05:17:30.829Z,5.63
2018-05-03T05:18:30.824Z,5.63
2018-05-03T05:19:30.841Z,11.25
2018-05-03T05:20:30.826Z,11.25
2018-05-03T05:21:30.811Z,11.25
2018-05-03T05:22:30.808Z,11.25
2018-05-03T05:23:30.826Z,11.25
2018-05-03T05:24:30.800Z,11.25
2018-05-03T05:25:30.807Z,11.25
2018-05-03T05:26:30.806Z,11.25
2018-05-03T05:27:30.786Z,11.25
2018-05-03T05:28:30.783Z,11.25
2018-05-03T05:29:30.782Z,11.25
2018-05-03T05:30:30.779Z,11.25
2018-05-03T05:31:30.977Z,11.25
2018-05-03T05:32:30.768Z,11.25
2018-05-03T05:33:30.777Z,16.88
2018-05-03T05:34:30.783Z,11.25
2018-05-03T05:35:30.770Z,11.25
2018-05-03T05:36:30.768Z,11.25
2018-05-03T05:37:30.753Z,11.25
2018-05-03T05:38:30.799Z,11.25
2018-05-03T05:39:30.743Z,11.25
2018-05-03T05:40:30.743Z,11.25
2018-05-03T05:41:30.735Z,16.88
2018-05-03T05:42:30.748Z,16.88
2018-05-03T05:43:30.739Z,22.50
2018-05-03T05:44:30.751Z,22.50
2018-05-03T05:45:30.729Z,22.50
2018-05-03T05:46:30.718Z,16.88
2018-05-03T05:47:30.717Z,16.88
2018-05-03T05:48:30.709Z,16.88
2018-05-03T05:49:30.705Z,16.88
2018-05-03T05:50:30.711Z,16.88
2018-05-03T05:51:30.701Z,16.88
2018-05-03T05:52:30.709Z,22.50
2018-05-03T05:53:30.690Z,16.88
2018-05-03T05:54:30.688Z,16.88
2018-05-03T05:55:30.684Z,16.88
2018-05-03T05:56:30.680Z,22.50
2018-05-03T05:57:30.678Z,22.50
2018-05-03T05:58:30.671Z,22.50
2018-05-03T05:59:30.666Z,22.50
2018-05-03T06:00:30.672Z,22.50
2018-05-03T06:01:30.662Z,22.50
2018-05-03T06:02:30.656Z,22.50
2018-05-03T06:03:30.696Z,22.50
2018-05-03T06:04:30.648Z,22.50
2018-05-03T06:05:30.657Z,28.13
2018-05-03T06:06:30.645Z,22.50
2018-05-03T06:07:30.645Z,28.13
2018-05-03T06:08:30.640Z,39.38
2018-05-03T06:09:30.629Z,33.75
2018-05-03T06:10:30.626Z,28.13
2018-05-03T06:11:30.627Z,33.75
2018-05-03T06:12:30.618Z,28.13
2018-05-03T06:13:30.615Z,33.75
2018-05-03T06:14:30.613Z,56.25
2018-05-03T06:15:30.605Z,50.63
2018-05-03T06:16:30.636Z,28.13
2018-05-03T06:17:30.604Z,146.25
2018-05-03T06:18:30.595Z,95.63
2018-05-03T06:19:30.589Z,157.50
2018-05-03T06:20:30.589Z,67.50
2018-05-03T06:21:30.595Z,95.63
2018-05-03T06:22:30.582Z,33.75
2018-05-03T06:23:30.581Z,45.00
2018-05-03T06:24:30.572Z,45.00
2018-05-03T06:25:30.583Z,45.00
2018-05-03T06:26:30.566Z,33.75
2018-05-03T06:27:30.562Z,33.75
2018-05-03T06:28:30.562Z,33.75
2018-05-03T06:29:30.563Z,45.00
2018-05-03T06:30:30.551Z,50.63
2018-05-03T06:31:30.547Z,61.88
2018-05-03T06:32:30.545Z,33.75
2018-05-03T06:33:30.548Z,39.38
2018-05-03T06:34:30.535Z,45.00
2018-05-03T06:35:30.533Z,45.00
2018-05-03T06:36:30.536Z,45.00
2018-05-03T06:37:30.529Z,39.38
2018-05-03T06:38:30.534Z,50.63
2018-05-03T06:39:30.518Z,50.63
2018-05-03T06:40:30.529Z,50.63
2018-05-03T06:41:30.511Z,56.25
2018-05-03T06:42:30.511Z,101.25
2018-05-03T06:43:30.504Z,90.00
2018-05-03T06:44:30.500Z,146.25
2018-05-03T06:45:30.495Z,506.25
2018-05-03T06:46:30.492Z,399.38
2018-05-03T06:47:30.503Z,630.00
2018-05-03T06:48:30.487Z,101.25
2018-05-03T06:49:30.499Z,129.38
2018-05-03T06:50:30.477Z,56.25
2018-05-03T06:51:30.517Z,50.63
2018-05-03T06:52:30.687Z,45.00
2018-05-03T06:53:30.480Z,45.00
2018-05-03T06:54:30.464Z,39.38
2018-05-03T06:55:30.462Z,45.00
2018-05-03T06:56:30.465Z,33.75
2018-05-03T06:57:30.469Z,56.25
2018-05-03T06:58:30.523Z,33.75
2018-05-03T06:59:30.653Z,39.38
2018-05-03T07:00:30.456Z,39.38
2018-05-03T07:01:30.442Z,50.63
2018-05-03T07:02:30.440Z,50.63
2018-05-03T07:03:30.435Z,112.50
2018-05-03T07:04:30.512Z,45.00
2018-05-03T07:05:30.438Z,45.00
2018-05-03T07:06:30.437Z,45.00
2018-05-03T07:07:30.419Z,78.75
2018-05-03T07:08:30.416Z,208.13
2018-05-03T07:09:30.416Z,50.63
2018-05-03T07:10:30.421Z,39.38
2018-05-03T07:11:30.406Z,50.63
2018-05-03T07:12:30.417Z,45.00
2018-05-03T07:13:30.615Z,39.38
2018-05-03T07:14:30.408Z,45.00
2018-05-03T07:15:30.598Z,50.63
2018-05-03T07:16:30.405Z,50.63
2018-05-03T07:17:30.387Z,56.25
2018-05-03T07:18:30.593Z,61.88
2018-05-03T07:19:30.382Z,78.75
2018-05-03T07:20:30.380Z,118.13
2018-05-03T07:21:30.400Z,219.38
2018-05-03T07:22:30.372Z,669.38
2018-05-03T07:23:30.367Z,1001.25
2018-05-03T07:24:30.375Z,765.00
2018-05-03T07:25:30.570Z,393.75
2018-05-03T07:26:30.360Z,838.13
2018-05-03T07:27:30.365Z,1293.75
2018-05-03T07:28:30.559Z,444.38
2018-05-03T07:29:30.605Z,1057.50
2018-05-03T07:30:30.359Z,489.38
2018-05-03T07:31:30.352Z,146.25
2018-05-03T07:32:30.344Z,118.13
2018-05-03T07:33:30.549Z,112.50
2018-05-03T07:34:30.543Z,180.00
2018-05-03T07:35:30.352Z,703.13
2018-05-03T07:36:30.535Z,810.00
2018-05-03T07:37:30.340Z,427.50
2018-05-03T07:38:30.329Z,691.88
2018-05-03T07:39:30.335Z,1248.75
2018-05-03T07:40:30.529Z,1440.00
2018-05-03T07:41:30.333Z,1260.00
2018-05-03T07:42:30.323Z,731.25
2018-05-03T07:43:30.316Z,748.13
2018-05-03T07:44:30.326Z,528.75
2018-05-03T07:45:30.313Z,118.13
2018-05-03T07:46:30.338Z,73.13
2018-05-03T07:47:30.516Z,67.50
2018-05-03T07:48:30.312Z,151.88
2018-05-03T07:49:30.319Z,354.38
2018-05-03T07:50:30.509Z,275.63
2018-05-03T07:51:30.304Z,129.38
2018-05-03T07:52:30.299Z,90.00
2018-05-03T07:53:30.320Z,61.88
2018-05-03T07:54:30.298Z,95.63
2018-05-03T07:55:30.307Z,258.75
2018-05-03T07:56:30.296Z,129.38
2018-05-03T07:57:30.496Z,202.50
2018-05-03T07:58:30.311Z,281.25
2018-05-03T07:59:30.287Z,78.75
2018-05-03T08:00:30.299Z,28.13
2018-05-03T08:01:30.293Z,39.38
2018-05-03T08:02:30.486Z,45.00
2018-05-03T08:03:30.304Z,50.63
2018-05-03T08:04:30.292Z,140.63
2018-05-03T08:05:30.274Z,90.00
2018-05-03T08:06:30.283Z,39.38
2018-05-03T08:07:30.271Z,45.00
2018-05-03T08:08:30.277Z,45.00
2018-05-03T08:09:30.266Z,33.75
2018-05-03T08:10:30.266Z,28.13
2018-05-03T08:11:30.289Z,39.38
2018-05-03T08:12:30.615Z,39.38
2018-05-03T08:13:30.272Z,28.13
2018-05-03T08:14:30.275Z,22.50
2018-05-03T08:15:30.459Z,22.50
2018-05-03T08:16:30.460Z,39.38
2018-05-03T08:17:30.262Z,50.63
2018-05-03T08:18:30.245Z,22.50
2018-05-03T08:19:30.445Z,16.88
2018-05-03T08:20:30.244Z,73.13
2018-05-03T08:21:30.238Z,33.75
2018-05-03T08:22:30.284Z,67.50
2018-05-03T08:23:30.437Z,61.88
2018-05-03T08:24:30.241Z,39.38
2018-05-03T08:25:30.225Z,22.50
2018-05-03T08:26:30.227Z,16.88
2018-05-03T08:27:30.235Z,16.88
2018-05-03T08:28:30.231Z,16.88
2018-05-03T08:29:30.230Z,11.25
2018-05-03T08:30:30.222Z,11.25
2018-05-03T08:31:30.220Z,11.25
2018-05-03T08:32:30.230Z,11.25
2018-05-03T08:33:30.225Z,11.25
2018-05-03T08:34:30.419Z,11.25
2018-05-03T08:35:30.212Z,11.25
2018-05-03T08:36:30.203Z,11.25
2018-05-03T08:37:30.195Z,11.25
2018-05-03T08:38:30.409Z,11.25
2018-05-03T08:39:30.405Z,16.88
2018-05-03T08:40:30.189Z,33.75
2018-05-03T08:41:30.197Z,78.75
2018-05-03T08:42:30.387Z,67.50
2018-05-03T08:43:30.181Z,73.13
2018-05-03T08:44:30.266Z,33.75
2018-05-03T08:45:30.195Z,39.38
2018-05-03T08:46:30.377Z,67.50
2018-05-03T08:47:30.170Z,50.63
2018-05-03T08:48:30.182Z,56.25
2018-05-03T08:49:30.384Z,45.00
2018-05-03T08:50:30.164Z,39.38
2018-05-03T08:51:30.177Z,50.63
2018-05-03T08:52:30.160Z,56.25
2018-05-03T08:53:30.175Z,50.63
2018-05-03T08:54:32.785Z,39.38
2018-05-03T08:55:30.200Z,33.75
2018-05-03T08:56:30.165Z,33.75
2018-05-03T08:57:30.179Z,28.13
2018-05-03T08:58:30.149Z,28.13
2018-05-03T08:59:30.162Z,33.75
2018-05-03T09:00:30.148Z,33.75
2018-05-03T09:01:30.217Z,39.38
2018-05-03T09:02:30.154Z,33.75
2018-05-03T09:03:30.139Z,28.13
2018-05-03T09:04:30.139Z,28.13
2018-05-03T09:05:30.149Z,22.50
2018-05-03T09:06:30.132Z,28.13
2018-05-03T09:07:30.192Z,33.75
2018-05-03T09:08:30.130Z,33.75
2018-05-03T09:09:30.142Z,33.75
2018-05-03T09:10:30.124Z,33.75
2018-05-03T09:11:30.138Z,33.75
2018-05-03T09:12:30.124Z,28.13
2018-05-03T09:13:30.134Z,22.50
2018-05-03T09:14:30.128Z,22.50
2018-05-03T09:15:30.114Z,22.50
2018-05-03T09:16:30.124Z,22.50
2018-05-03T09:17:30.114Z,22.50
2018-05-03T09:18:30.108Z,22.50
2018-05-03T09:19:30.108Z,22.50
2018-05-03T09:20:30.105Z,22.50
2018-05-03T09:21:30.100Z,22.50
2018-05-03T09:22:30.200Z,28.13
2018-05-03T09:23:30.107Z,22.50
2018-05-03T09:24:30.094Z,28.13
2018-05-03T09:25:30.091Z,22.50
2018-05-03T09:26:30.090Z,22.50
2018-05-03T09:27:30.085Z,22.50
2018-05-03T09:28:30.090Z,28.13
2018-05-03T09:29:30.103Z,22.50
2018-05-03T09:30:30.077Z,22.50
2018-05-03T09:31:30.087Z,22.50
2018-05-03T09:32:30.071Z,22.50
2018-05-03T09:33:30.073Z,22.50
2018-05-03T09:34:30.081Z,28.13
2018-05-03T09:35:30.066Z,22.50
2018-05-03T09:36:30.072Z,28.13
2018-05-03T09:37:30.061Z,28.13
2018-05-03T09:38:30.068Z,28.13
2018-05-03T09:39:30.075Z,28.13
2018-05-03T09:40:30.053Z,28.13
2018-05-03T09:41:30.050Z,28.13
2018-05-03T09:42:30.063Z,22.50
2018-05-03T09:43:30.261Z,33.75
2018-05-03T09:44:30.111Z,22.50
2018-05-03T09:45:30.039Z,28.13
2018-05-03T09:46:30.039Z,22.50
2018-05-03T09:47:30.046Z,22.50
2018-05-03T09:48:30.043Z,22.50
2018-05-03T09:49:30.231Z,22.50
2018-05-03T09:50:30.031Z,28.13
2018-05-03T09:51:30.039Z,22.50
2018-05-03T09:52:30.088Z,28.13
2018-05-03T09:53:30.036Z,22.50
2018-05-03T09:54:30.023Z,22.50
2018-05-03T09:55:30.036Z,28.13
2018-05-03T09:56:30.027Z,28.13
2018-05-03T09:57:30.020Z,28.13
2018-05-03T09:58:30.009Z,28.13
2018-05-03T09:59:30.035Z,28.13
2018-05-03T10:00:30.006Z,28.13
2018-05-03T10:01:30.011Z,28.13
2018-05-03T10:02:29.999Z,28.13
2018-05-03T10:03:29.995Z,28.13
2018-05-03T10:04:30.193Z,28.13
2018-05-03T10:05:30.010Z,22.50
2018-05-03T10:06:29.998Z,22.50
2018-05-03T10:07:29.997Z,22.50
2018-05-03T10:08:29.990Z,28.13
2018-05-03T10:09:29.990Z,22.50
2018-05-03T10:10:29.987Z,28.13
2018-05-03T10:11:30.196Z,28.13
2018-05-03T10:12:30.001Z,28.13
2018-05-03T10:13:29.979Z,28.13
2018-05-03T10:14:30.226Z,22.50
2018-05-03T10:15:29.965Z,22.50
2018-05-03T10:16:29.976Z,28.13
2018-05-03T10:17:29.960Z,28.13
2018-05-03T10:18:29.979Z,28.13
2018-05-03T10:19:29.966Z,28.13
2018-05-03T10:20:29.952Z,28.13
2018-05-03T10:21:29.952Z,28.13
2018-05-03T10:22:30.252Z,22.50
2018-05-03T10:23:29.944Z,22.50
2018-05-03T10:24:29.942Z,22.50
2018-05-03T10:25:30.170Z,22.50
2018-05-03T10:26:29.937Z,22.50
2018-05-03T10:27:29.936Z,22.50
2018-05-03T10:28:29.933Z,22.50
2018-05-03T10:29:29.942Z,22.50
2018-05-03T10:30:30.143Z,22.50
2018-05-03T10:31:29.953Z,22.50
2018-05-03T10:32:29.935Z,22.50
2018-05-03T10:33:29.920Z,22.50
2018-05-03T10:34:29.930Z,22.50
2018-05-03T10:35:29.934Z,22.50
2018-05-03T10:36:30.140Z,16.88
2018-05-03T10:37:30.136Z,16.88
2018-05-03T10:38:29.908Z,16.88
2018-05-03T10:39:29.918Z,22.50
2018-05-03T10:40:29.935Z,22.50
2018-05-03T10:41:29.900Z,22.50
2018-05-03T10:42:29.901Z,22.50
2018-05-03T10:43:29.926Z,16.88
2018-05-03T10:44:29.920Z,28.13
2018-05-03T10:45:29.896Z,22.50
2018-05-03T10:46:29.891Z,28.13
2018-05-03T10:47:29.898Z,28.13
2018-05-03T10:48:29.885Z,28.13
2018-05-03T10:49:29.893Z,28.13
2018-05-03T10:50:29.882Z,28.13
2018-05-03T10:51:29.903Z,28.13
2018-05-03T10:52:29.877Z,28.13
2018-05-03T10:53:29.874Z,22.50
2018-05-03T10:54:29.893Z,28.13
2018-05-03T10:55:29.869Z,28.13
2018-05-03T10:56:29.873Z,28.13
2018-05-03T10:57:30.083Z,28.13
2018-05-03T10:58:29.887Z,28.13
2018-05-03T10:59:29.874Z,22.50
2018-05-03T11:00:29.857Z,22.50
2018-05-03T11:01:29.865Z,22.50
2018-05-03T11:02:29.867Z,22.50
2018-05-03T11:03:30.058Z,22.50
2018-05-03T11:04:29.848Z,22.50
2018-05-03T11:05:29.860Z,22.50
2018-05-03T11:06:30.062Z,22.50
2018-05-03T11:07:29.851Z,22.50
2018-05-03T11:08:30.042Z,22.50
2018-05-03T11:09:29.835Z,16.88
2018-05-03T11:10:29.854Z,16.88
2018-05-03T11:11:29.874Z,22.50
2018-05-03T11:12:29.842Z,16.88
2018-05-03T11:13:30.031Z,16.88
2018-05-03T11:14:29.828Z,16.88
2018-05-03T11:15:30.026Z,16.88
2018-05-03T11:16:29.825Z,16.88
2018-05-03T11:17:29.823Z,22.50
2018-05-03T11:18:29.831Z,16.88
2018-05-03T11:19:29.835Z,16.88
2018-05-03T11:20:29.814Z,22.50
2018-05-03T11:21:30.025Z,22.50
2018-05-03T11:22:29.819Z,22.50
2018-05-03T11:23:29.817Z,16.88
2018-05-03T11:24:29.816Z,16.88
2018-05-03T11:25:29.811Z,16.88
2018-05-03T11:26:29.797Z,16.88
2018-05-03T11:27:29.810Z,16.88
2018-05-03T11:28:29.795Z,22.50
2018-05-03T11:29:29.800Z,22.50
2018-05-03T11:30:29.994Z,22.50
2018-05-03T11:31:30.017Z,16.88
2018-05-03T11:32:29.998Z,22.50
2018-05-03T11:33:29.781Z,22.50
2018-05-03T11:34:29.985Z,22.50
2018-05-03T11:35:29.791Z,22.50
2018-05-03T11:36:29.777Z,22.50
2018-05-03T11:37:29.976Z,22.50
2018-05-03T11:38:29.782Z,22.50
2018-05-03T11:39:29.777Z,22.50
2018-05-03T11:40:29.779Z,22.50
2018-05-03T11:41:29.768Z,22.50
2018-05-03T11:42:29.760Z,22.50
2018-05-03T11:43:29.761Z,22.50
2018-05-03T11:44:29.755Z,22.50
2018-05-03T11:45:29.767Z,22.50
2018-05-03T11:46:29.766Z,22.50
2018-05-03T11:47:29.751Z,22.50
2018-05-03T11:48:29.748Z,22.50
2018-05-03T11:49:29.760Z,22.50
2018-05-03T11:50:29.821Z,22.50
2018-05-03T11:51:29.742Z,22.50
2018-05-03T11:52:29.741Z,22.50
2018-05-03T11:53:29.742Z,22.50
2018-05-03T11:54:29.937Z,22.50
2018-05-03T11:55:29.732Z,22.50
2018-05-03T11:56:29.735Z,22.50
2018-05-03T11:57:29.729Z,22.50
2018-05-03T11:58:29.740Z,22.50
2018-05-03T11:59:29.929Z,22.50
2018-05-03T12:00:29.939Z,22.50
2018-05-03T12:01:29.741Z,22.50
2018-05-03T12:02:29.798Z,22.50
2018-05-03T12:03:29.712Z,22.50
2018-05-03T12:04:29.794Z,22.50
2018-05-03T12:05:29.723Z,22.50
2018-05-03T12:06:29.733Z,22.50
2018-05-03T12:07:29.706Z,22.50
2018-05-03T12:08:29.730Z,22.50
2018-05-03T12:09:29.907Z,22.50
2018-05-03T12:10:29.919Z,22.50
2018-05-03T12:11:29.706Z,22.50
2018-05-03T12:12:29.757Z,22.50
2018-05-03T12:13:29.692Z,22.50
2018-05-03T12:14:29.700Z,22.50
2018-05-03T12:15:29.689Z,22.50
2018-05-03T12:16:29.694Z,22.50
2018-05-03T12:17:29.683Z,22.50
2018-05-03T12:18:29.687Z,22.50
2018-05-03T12:19:29.681Z,22.50
2018-05-03T12:20:29.674Z,22.50
2018-05-03T12:21:29.675Z,22.50
2018-05-03T12:22:29.692Z,22.50
2018-05-03T12:23:29.679Z,22.50
2018-05-03T12:24:29.681Z,22.50
2018-05-03T12:25:29.679Z,22.50
2018-05-03T12:26:29.673Z,22.50
2018-05-03T12:27:29.660Z,22.50
2018-05-03T12:28:29.880Z,22.50
2018-05-03T12:29:29.655Z,22.50
2018-05-03T12:30:29.859Z,22.50
2018-05-03T12:31:29.653Z,22.50
2018-05-03T12:32:29.665Z,22.50
2018-05-03T12:33:29.660Z,22.50
2018-05-03T12:34:29.646Z,22.50
2018-05-03T12:35:29.654Z,22.50
2018-05-03T12:36:29.667Z,22.50
2018-05-03T12:37:29.664Z,22.50
2018-05-03T12:38:29.640Z,22.50
2018-05-03T12:39:29.667Z,22.50
2018-05-03T12:40:29.631Z,22.50
2018-05-03T12:41:29.836Z,22.50
2018-05-03T12:42:29.641Z,22.50
2018-05-03T12:43:29.632Z,22.50
2018-05-03T12:44:29.625Z,22.50
2018-05-03T12:45:29.638Z,28.13
2018-05-03T12:46:29.621Z,22.50
2018-05-03T12:47:29.833Z,22.50
2018-05-03T12:48:29.619Z,22.50
2018-05-03T12:49:29.829Z,22.50
2018-05-03T12:50:29.613Z,22.50
2018-05-03T12:51:29.614Z,22.50
2018-05-03T12:52:29.613Z,22.50
2018-05-03T12:53:29.622Z,22.50
2018-05-03T12:54:29.618Z,22.50
2018-05-03T12:55:29.816Z,22.50
2018-05-03T12:56:29.604Z,22.50
2018-05-03T12:57:29.804Z,22.50
2018-05-03T12:58:29.608Z,22.50
2018-05-03T12:59:29.598Z,22.50
2018-05-03T13:00:29.592Z,22.50
2018-05-03T13:01:29.596Z,22.50
2018-05-03T13:02:29.592Z,22.50